| time (UTC) | temp F | wind direction | speed MPH | gust MPH | rain 1hr in | rain 24hr in | rain mn in | humidity % | barometer mb |
| 20260505073039 | 68 | 262 | 0.0 | 1.0 | 0.00 | 0.00 | 0.00 | 66 | 1014.0 |
| 20260505071535 | 68 | 240 | 0.0 | 4.0 | 0.00 | 0.00 | 0.00 | 65 | 1014.1 |
| 20260505070039 | 68 | 194 | 2.0 | 5.0 | 0.00 | 0.00 | 0.00 | 66 | 1014.2 |
| 20260505064530 | 68 | 207 | 0.0 | 3.0 | 0.00 | 0.00 | 0.00 | 67 | 1014.4 |
| 20260505063028 | 68 | 216 | 0.0 | 4.0 | 0.00 | 0.00 | 0.00 | 66 | 1014.7 |
| 20260505061531 | 69 | 225 | 2.0 | 5.0 | 0.00 | 0.00 | 0.00 | 65 | 1014.9 |
| 20260505060026 | 69 | 203 | 2.0 | 5.0 | 0.00 | 0.00 | 0.00 | 65 | 1015.0 |
| 20260505054537 | 69 | 243 | 0.0 | 3.0 | 0.00 | 0.00 | 0.00 | 65 | 1015.2 |
| 20260505053026 | 68 | 255 | 0.0 | 3.0 | 0.00 | 0.00 | 0.00 | 67 | 1015.3 |
| 20260505051522 | 68 | 238 | 0.0 | 4.0 | 0.00 | 0.00 | 0.00 | 68 | 1015.3 |
| 20260505041517 | 68 | 266 | 0.0 | 1.0 | 0.00 | 0.00 | 0.00 | 68 | 1015.5 |
| 20260505040033 | 68 | 277 | 0.0 | 0.0 | 0.00 | 0.00 | 0.00 | 69 | 1015.6 |
| 20260505034520 | 68 | 300 | 0.0 | 1.0 | 0.00 | 0.00 | 0.00 | 68 | 1015.5 |
| 20260505033016 | 68 | 217 | 0.0 | 4.0 | 0.00 | 0.00 | 0.00 | 67 | 1015.5 |
| 20260505031514 | 69 | 212 | 0.0 | 4.0 | 0.00 | 0.00 | 0.00 | 67 | 1015.7 |
| 20260505030016 | 69 | 271 | 0.0 | 3.0 | 0.00 | 0.00 | 0.00 | 67 | 1015.6 |
| 20260505024512 | 69 | 247 | 0.0 | 3.0 | 0.00 | 0.00 | 0.00 | 67 | 1015.4 |
| 20260505023013 | 69 | 219 | 1.0 | 4.0 | 0.00 | 0.00 | 0.00 | 67 | 1015.3 |
| 20260505021510 | 69 | 243 | 1.0 | 6.0 | 0.00 | 0.00 | 0.00 | 66 | 1015.4 |
| 20260505020013 | 69 | 257 | 0.0 | 3.0 | 0.00 | 0.00 | 0.00 | 66 | 1015.4 |
| 20260505014508 | 69 | 219 | 0.0 | 1.0 | 0.00 | 0.00 | 0.00 | 67 | 1015.5 |
| 20260505013006 | 69 | 226 | 0.0 | 3.0 | 0.00 | 0.00 | 0.00 | 64 | 1015.7 |
| 20260505011506 | 70 | 311 | 1.0 | 4.0 | 0.00 | 0.00 | 0.00 | 64 | 1015.8 |
| 20260505010005 | 70 | 255 | 0.0 | 7.0 | 0.00 | 0.00 | 0.00 | 65 | 1015.7 |
| 20260505004507 | 70 | 209 | 2.0 | 5.0 | 0.00 | 0.00 | 0.00 | 65 | 1015.8 |
| 20260505003003 | 70 | 213 | 2.0 | 4.0 | 0.00 | 0.00 | 0.00 | 63 | 1015.8 |
| 20260505001502 | 71 | 223 | 2.0 | 7.0 | 0.00 | 0.00 | 0.00 | 61 | 1015.8 |
| 20260505000003 | 73 | 222 | 1.0 | 7.0 | 0.00 | 0.00 | 0.00 | 59 | 1015.8 |
| 20260504234501 | 74 | 226 | 3.0 | 5.0 | 0.00 | 0.00 | 0.00 | 57 | 1016.1 |
| 20260504233104 | 74 | 226 | 1.0 | 5.0 | 0.00 | 0.00 | 0.00 | 55 | 1016.1 |
| 20260504231600 | 74 | 206 | 4.0 | 9.0 | 0.00 | 0.00 | 0.00 | 56 | 1015.9 |
| 20260504230059 | 74 | 211 | 5.0 | 9.0 | 0.00 | 0.00 | 0.00 | 56 | 1015.9 |
| 20260504224600 | 74 | 243 | 4.0 | 9.0 | 0.00 | 0.00 | 0.00 | 54 | 1016.0 |
| 20260504223058 | 74 | 204 | 4.0 | 11.0 | 0.00 | 0.00 | 0.00 | 55 | 1016.1 |
| 20260504221557 | 74 | 199 | 6.0 | 9.0 | 0.00 | 0.00 | 0.00 | 54 | 1016.0 |
| 20260504214557 | 74 | 210 | 4.0 | 10.0 | 0.00 | 0.00 | 0.00 | 53 | 1016.1 |
| 20260504213109 | 74 | 197 | 6.0 | 12.0 | 0.00 | 0.00 | 0.00 | 52 | 1016.1 |
| 20260504211552 | 75 | 158 | 3.0 | 11.0 | 0.00 | 0.00 | 0.00 | 53 | 1016.2 |
| 20260504210051 | 75 | 155 | 4.0 | 8.0 | 0.00 | 0.00 | 0.00 | 51 | 1016.3 |
| 20260504204559 | 75 | 186 | 1.0 | 7.0 | 0.00 | 0.00 | 0.00 | 50 | 1016.3 |
| 20260504203049 | 75 | 214 | 1.0 | 8.0 | 0.00 | 0.00 | 0.00 | 52 | 1016.4 |
| 20260504201548 | 75 | 152 | 0.0 | 9.0 | 0.00 | 0.00 | 0.00 | 52 | 1016.5 |
| 20260504200047 | 74 | 161 | 1.0 | 8.0 | 0.00 | 0.00 | 0.00 | 49 | 1016.6 |
| 20260504194545 | 75 | 200 | 2.0 | 7.0 | 0.00 | 0.00 | 0.00 | 50 | 1016.9 |
| 20260504193055 | 75 | 185 | 1.0 | 6.0 | 0.00 | 0.00 | 0.00 | 48 | 1017.1 |
| 20260504191542 | 75 | 227 | 1.0 | 5.0 | 0.00 | 0.00 | 0.00 | 46 | 1017.3 |
| 20260504190042 | 76 | 101 | 0.0 | 3.0 | 0.00 | 0.00 | 0.00 | 47 | 1017.5 |
| 20260504184540 | 76 | 131 | 0.0 | 1.0 | 0.00 | 0.00 | 0.00 | 48 | 1017.6 |
| 20260504183041 | 76 | 200 | 0.0 | 1.0 | 0.00 | 0.00 | 0.00 | 46 | 1017.8 |
| 20260504181536 | 76 | 192 | 0.0 | 1.0 | 0.00 | 0.00 | 0.00 | 47 | 1017.9 |
| 20260504180043 | 75 | 181 | 0.0 | 1.0 | 0.00 | 0.00 | 0.00 | 49 | 1018.0 |
| 20260504174531 | 75 | 250 | 0.0 | 5.0 | 0.00 | 0.00 | 0.00 | 47 | 1018.0 |
| 20260504173027 | 74 | 189 | 0.0 | 7.0 | 0.00 | 0.00 | 0.00 | 50 | 1018.2 |
| 20260504171526 | 73 | 205 | 2.0 | 8.0 | 0.00 | 0.00 | 0.00 | 52 | 1018.3 |
| 20260504081530 | 59 | 6 | 0.0 | 0.0 | 0.00 | 0.00 | 0.00 | 88 | 1018.2 |